sensor_id;sensor_type;location;lat;lon;timestamp;temperature;humidity
6865;DHT22;3471;49.678;8.388;2022-12-29T00:01:36;10.90;99.90
6865;DHT22;3471;49.678;8.388;2022-12-29T00:04:02;11.00;99.90
6865;DHT22;3471;49.678;8.388;2022-12-29T00:06:28;11.00;99.90
6865;DHT22;3471;49.678;8.388;2022-12-29T00:08:54;11.10;99.90
6865;DHT22;3471;49.678;8.388;2022-12-29T00:11:22;11.10;99.90
6865;DHT22;3471;49.678;8.388;2022-12-29T00:13:48;11.10;99.90
6865;DHT22;3471;49.678;8.388;2022-12-29T00:16:33;11.30;99.90
6865;DHT22;3471;49.678;8.388;2022-12-29T00:19:00;11.30;99.90
6865;DHT22;3471;49.678;8.388;2022-12-29T00:21:26;11.40;99.90
6865;DHT22;3471;49.678;8.388;2022-12-29T00:24:19;11.40;99.90
6865;DHT22;3471;49.678;8.388;2022-12-29T00:29:50;11.50;99.90
6865;DHT22;3471;49.678;8.388;2022-12-29T00:32:34;11.50;99.90
6865;DHT22;3471;49.678;8.388;2022-12-29T00:37:51;11.60;99.90
6865;DHT22;3471;49.678;8.388;2022-12-29T00:40:36;11.70;99.90
6865;DHT22;3471;49.678;8.388;2022-12-29T00:43:20;11.70;99.90
6865;DHT22;3471;49.678;8.388;2022-12-29T00:46:05;11.70;99.90
6865;DHT22;3471;49.678;8.388;2022-12-29T00:48:30;11.70;99.90
6865;DHT22;3471;49.678;8.388;2022-12-29T00:51:28;11.70;99.90
6865;DHT22;3471;49.678;8.388;2022-12-29T00:53:54;11.70;99.90
6865;DHT22;3471;49.678;8.388;2022-12-29T00:56:19;11.80;99.90
6865;DHT22;3471;49.678;8.388;2022-12-29T00:58:45;11.80;99.90
6865;DHT22;3471;49.678;8.388;2022-12-29T01:01:11;11.70;99.90
6865;DHT22;3471;49.678;8.388;2022-12-29T01:03:37;11.80;99.90
6865;DHT22;3471;49.678;8.388;2022-12-29T01:06:05;11.70;99.90
6865;DHT22;3471;49.678;8.388;2022-12-29T01:08:30;11.70;99.90
6865;DHT22;3471;49.678;8.388;2022-12-29T01:11:06;11.80;99.90
6865;DHT22;3471;49.678;8.388;2022-12-29T01:13:32;11.80;99.90
6865;DHT22;3471;49.678;8.388;2022-12-29T01:15:58;11.70;99.90
6865;DHT22;3471;49.678;8.388;2022-12-29T01:18:24;11.70;99.90
6865;DHT22;3471;49.678;8.388;2022-12-29T01:20:51;11.70;99.90
6865;DHT22;3471;49.678;8.388;2022-12-29T01:23:17;11.70;99.90
6865;DHT22;3471;49.678;8.388;2022-12-29T01:25:42;11.80;99.90
6865;DHT22;3471;49.678;8.388;2022-12-29T01:28:08;11.80;99.90
6865;DHT22;3471;49.678;8.388;2022-12-29T01:30:34;11.90;99.90
6865;DHT22;3471;49.678;8.388;2022-12-29T01:33:00;11.90;99.90
6865;DHT22;3471;49.678;8.388;2022-12-29T01:35:27;11.90;99.90
6865;DHT22;3471;49.678;8.388;2022-12-29T01:37:52;11.90;99.90
6865;DHT22;3471;49.678;8.388;2022-12-29T01:40:18;11.90;99.90
6865;DHT22;3471;49.678;8.388;2022-12-29T01:42:43;11.90;99.90
6865;DHT22;3471;49.678;8.388;2022-12-29T01:45:14;11.90;99.90
6865;DHT22;3471;49.678;8.388;2022-12-29T01:47:58;11.90;99.90
6865;DHT22;3471;49.678;8.388;2022-12-29T01:50:30;11.90;99.90
6865;DHT22;3471;49.678;8.388;2022-12-29T01:55:36;11.90;99.90
6865;DHT22;3471;49.678;8.388;2022-12-29T01:58:04;11.90;99.90
6865;DHT22;3471;49.678;8.388;2022-12-29T02:00:31;11.90;99.90
6865;DHT22;3471;49.678;8.388;2022-12-29T02:02:57;11.80;99.90
6865;DHT22;3471;49.678;8.388;2022-12-29T02:05:30;11.90;99.90
6865;DHT22;3471;49.678;8.388;2022-12-29T02:07:58;11.90;99.90
6865;DHT22;3471;49.678;8.388;2022-12-29T02:10:26;11.90;99.90
6865;DHT22;3471;49.678;8.388;2022-12-29T02:12:53;11.90;99.90
6865;DHT22;3471;49.678;8.388;2022-12-29T02:15:27;11.90;99.90
6865;DHT22;3471;49.678;8.388;2022-12-29T02:28:59;12.00;99.90
6865;DHT22;3471;49.678;8.388;2022-12-29T02:31:42;12.10;99.90
6865;DHT22;3471;49.678;8.388;2022-12-29T02:39:57;12.00;99.90
6865;DHT22;3471;49.678;8.388;2022-12-29T02:45:28;12.00;99.90
6865;DHT22;3471;49.678;8.388;2022-12-29T02:48:04;12.00;99.90
6865;DHT22;3471;49.678;8.388;2022-12-29T02:50:43;12.00;99.90
6865;DHT22;3471;49.678;8.388;2022-12-29T02:53:13;12.00;99.90
6865;DHT22;3471;49.678;8.388;2022-12-29T02:55:51;12.00;99.90
6865;DHT22;3471;49.678;8.388;2022-12-29T02:58:18;12.10;99.90
6865;DHT22;3471;49.678;8.388;2022-12-29T03:07:04;12.10;99.90
6865;DHT22;3471;49.678;8.388;2022-12-29T03:09:52;12.10;99.90
6865;DHT22;3471;49.678;8.388;2022-12-29T03:17:58;12.20;99.90
6865;DHT22;3471;49.678;8.388;2022-12-29T03:20:32;12.20;99.90
6865;DHT22;3471;49.678;8.388;2022-12-29T03:23:01;12.30;99.90
6865;DHT22;3471;49.678;8.388;2022-12-29T03:25:31;12.20;99.90
6865;DHT22;3471;49.678;8.388;2022-12-29T03:28:01;12.20;99.90
6865;DHT22;3471;49.678;8.388;2022-12-29T03:30:29;12.20;99.90
6865;DHT22;3471;49.678;8.388;2022-12-29T03:33:00;12.20;99.90
6865;DHT22;3471;49.678;8.388;2022-12-29T03:35:29;12.20;99.90
6865;DHT22;3471;49.678;8.388;2022-12-29T03:38:39;12.20;99.90
6865;DHT22;3471;49.678;8.388;2022-12-29T03:41:06;12.20;99.90
6865;DHT22;3471;49.678;8.388;2022-12-29T03:43:33;12.20;99.90
6865;DHT22;3471;49.678;8.388;2022-12-29T03:45:59;12.20;99.90
6865;DHT22;3471;49.678;8.388;2022-12-29T03:48:25;12.20;99.90
6865;DHT22;3471;49.678;8.388;2022-12-29T03:50:50;12.10;99.90
6865;DHT22;3471;49.678;8.388;2022-12-29T03:53:16;12.20;99.90
6865;DHT22;3471;49.678;8.388;2022-12-29T03:55:42;12.20;99.90
6865;DHT22;3471;49.678;8.388;2022-12-29T03:58:07;12.20;99.90
6865;DHT22;3471;49.678;8.388;2022-12-29T04:00:33;12.20;99.90
6865;DHT22;3471;49.678;8.388;2022-12-29T04:02:58;12.20;99.90
6865;DHT22;3471;49.678;8.388;2022-12-29T04:05:24;12.20;99.90
6865;DHT22;3471;49.678;8.388;2022-12-29T04:07:50;12.20;99.90
6865;DHT22;3471;49.678;8.388;2022-12-29T04:10:15;12.20;99.90
6865;DHT22;3471;49.678;8.388;2022-12-29T04:12:41;12.20;99.90
6865;DHT22;3471;49.678;8.388;2022-12-29T04:15:09;12.30;99.90
6865;DHT22;3471;49.678;8.388;2022-12-29T04:17:34;12.40;99.90
6865;DHT22;3471;49.678;8.388;2022-12-29T04:20:00;12.30;99.90
6865;DHT22;3471;49.678;8.388;2022-12-29T04:22:44;12.40;99.90
6865;DHT22;3471;49.678;8.388;2022-12-29T04:25:10;12.40;99.90
6865;DHT22;3471;49.678;8.388;2022-12-29T04:27:35;12.50;99.90
6865;DHT22;3471;49.678;8.388;2022-12-29T04:30:01;12.50;99.90
6865;DHT22;3471;49.678;8.388;2022-12-29T04:32:27;12.50;99.90
6865;DHT22;3471;49.678;8.388;2022-12-29T04:34:52;12.50;99.90
6865;DHT22;3471;49.678;8.388;2022-12-29T04:37:18;12.50;99.90
6865;DHT22;3471;49.678;8.388;2022-12-29T04:39:43;12.50;99.90
6865;DHT22;3471;49.678;8.388;2022-12-29T04:42:09;12.60;99.90
6865;DHT22;3471;49.678;8.388;2022-12-29T04:44:34;12.60;99.90
6865;DHT22;3471;49.678;8.388;2022-12-29T04:47:00;12.50;99.90
6865;DHT22;3471;49.678;8.388;2022-12-29T04:49:25;12.50;99.90
6865;DHT22;3471;49.678;8.388;2022-12-29T04:51:51;12.50;99.90
6865;DHT22;3471;49.678;8.388;2022-12-29T04:54:16;12.50;99.90
6865;DHT22;3471;49.678;8.388;2022-12-29T04:56:42;12.40;99.90
6865;DHT22;3471;49.678;8.388;2022-12-29T04:59:07;12.50;99.90
6865;DHT22;3471;49.678;8.388;2022-12-29T05:01:33;12.50;99.90
6865;DHT22;3471;49.678;8.388;2022-12-29T05:03:59;12.50;99.90
6865;DHT22;3471;49.678;8.388;2022-12-29T05:06:24;12.50;99.90
6865;DHT22;3471;49.678;8.388;2022-12-29T05:08:50;12.50;99.90
6865;DHT22;3471;49.678;8.388;2022-12-29T05:11:15;12.50;99.90
6865;DHT22;3471;49.678;8.388;2022-12-29T05:13:41;12.50;99.90
6865;DHT22;3471;49.678;8.388;2022-12-29T05:16:06;12.40;99.90
6865;DHT22;3471;49.678;8.388;2022-12-29T05:18:32;12.50;99.90
6865;DHT22;3471;49.678;8.388;2022-12-29T05:20:57;12.40;99.90
6865;DHT22;3471;49.678;8.388;2022-12-29T05:23:23;12.40;99.90
6865;DHT22;3471;49.678;8.388;2022-12-29T05:25:49;12.40;99.90
6865;DHT22;3471;49.678;8.388;2022-12-29T05:28:14;12.40;99.90
6865;DHT22;3471;49.678;8.388;2022-12-29T05:30:40;12.40;99.90
6865;DHT22;3471;49.678;8.388;2022-12-29T05:33:05;12.50;99.90
6865;DHT22;3471;49.678;8.388;2022-12-29T05:35:32;12.40;99.90
6865;DHT22;3471;49.678;8.388;2022-12-29T05:37:57;12.50;99.90
6865;DHT22;3471;49.678;8.388;2022-12-29T05:40:24;12.50;99.90
6865;DHT22;3471;49.678;8.388;2022-12-29T05:42:50;12.50;99.90
6865;DHT22;3471;49.678;8.388;2022-12-29T05:45:15;12.60;99.90
6865;DHT22;3471;49.678;8.388;2022-12-29T05:47:41;12.60;99.90
6865;DHT22;3471;49.678;8.388;2022-12-29T05:50:07;12.60;99.90
6865;DHT22;3471;49.678;8.388;2022-12-29T05:52:32;12.60;99.90
6865;DHT22;3471;49.678;8.388;2022-12-29T05:54:58;12.70;99.90
6865;DHT22;3471;49.678;8.388;2022-12-29T05:57:24;12.70;99.90
6865;DHT22;3471;49.678;8.388;2022-12-29T05:59:49;12.70;99.90
6865;DHT22;3471;49.678;8.388;2022-12-29T06:02:15;12.70;99.90
6865;DHT22;3471;49.678;8.388;2022-12-29T06:04:40;12.70;99.90
6865;DHT22;3471;49.678;8.388;2022-12-29T06:07:06;12.70;99.90
6865;DHT22;3471;49.678;8.388;2022-12-29T06:09:31;12.60;99.90
6865;DHT22;3471;49.678;8.388;2022-12-29T06:11:57;12.60;99.90
6865;DHT22;3471;49.678;8.388;2022-12-29T06:14:22;12.60;99.90
6865;DHT22;3471;49.678;8.388;2022-12-29T06:16:48;12.60;99.90
6865;DHT22;3471;49.678;8.388;2022-12-29T06:19:13;12.70;99.90
6865;DHT22;3471;49.678;8.388;2022-12-29T06:21:39;12.70;99.90
6865;DHT22;3471;49.678;8.388;2022-12-29T06:24:05;12.60;99.90
6865;DHT22;3471;49.678;8.388;2022-12-29T06:26:31;12.60;99.90
6865;DHT22;3471;49.678;8.388;2022-12-29T06:28:56;12.60;99.90
6865;DHT22;3471;49.678;8.388;2022-12-29T06:31:22;12.60;99.90
6865;DHT22;3471;49.678;8.388;2022-12-29T06:33:47;12.60;99.90
6865;DHT22;3471;49.678;8.388;2022-12-29T06:36:13;12.60;99.90
6865;DHT22;3471;49.678;8.388;2022-12-29T06:38:39;12.60;99.90
6865;DHT22;3471;49.678;8.388;2022-12-29T06:41:04;12.60;99.90
6865;DHT22;3471;49.678;8.388;2022-12-29T06:43:30;12.60;99.90
6865;DHT22;3471;49.678;8.388;2022-12-29T06:45:56;12.60;99.90
6865;DHT22;3471;49.678;8.388;2022-12-29T06:48:21;12.60;99.90
6865;DHT22;3471;49.678;8.388;2022-12-29T06:50:47;12.60;99.90
6865;DHT22;3471;49.678;8.388;2022-12-29T06:53:12;12.60;99.90
6865;DHT22;3471;49.678;8.388;2022-12-29T06:55:38;12.60;99.90
6865;DHT22;3471;49.678;8.388;2022-12-29T06:58:03;12.60;99.90
6865;DHT22;3471;49.678;8.388;2022-12-29T07:00:29;12.70;99.90
6865;DHT22;3471;49.678;8.388;2022-12-29T07:02:55;12.70;99.90
6865;DHT22;3471;49.678;8.388;2022-12-29T07:05:23;12.70;99.90
6865;DHT22;3471;49.678;8.388;2022-12-29T07:07:50;12.70;99.90
6865;DHT22;3471;49.678;8.388;2022-12-29T07:10:16;12.80;99.90
6865;DHT22;3471;49.678;8.388;2022-12-29T07:12:41;12.90;99.90
6865;DHT22;3471;49.678;8.388;2022-12-29T07:15:07;12.90;99.90
6865;DHT22;3471;49.678;8.388;2022-12-29T07:17:33;12.90;99.90
6865;DHT22;3471;49.678;8.388;2022-12-29T07:19:58;12.90;99.90
6865;DHT22;3471;49.678;8.388;2022-12-29T07:22:24;12.90;99.90
6865;DHT22;3471;49.678;8.388;2022-12-29T07:24:49;13.00;99.90
6865;DHT22;3471;49.678;8.388;2022-12-29T07:27:15;13.00;99.90
6865;DHT22;3471;49.678;8.388;2022-12-29T07:29:41;13.00;99.90
6865;DHT22;3471;49.678;8.388;2022-12-29T07:32:06;13.00;99.90
6865;DHT22;3471;49.678;8.388;2022-12-29T07:34:32;13.00;99.90
6865;DHT22;3471;49.678;8.388;2022-12-29T07:36:57;13.10;99.90
6865;DHT22;3471;49.678;8.388;2022-12-29T07:39:23;13.10;99.90
6865;DHT22;3471;49.678;8.388;2022-12-29T07:41:48;13.00;99.90
6865;DHT22;3471;49.678;8.388;2022-12-29T07:44:14;13.00;99.90
6865;DHT22;3471;49.678;8.388;2022-12-29T07:46:39;13.10;99.90
6865;DHT22;3471;49.678;8.388;2022-12-29T07:49:05;13.20;99.90
6865;DHT22;3471;49.678;8.388;2022-12-29T07:51:31;13.20;99.90
6865;DHT22;3471;49.678;8.388;2022-12-29T07:53:57;13.20;99.90
6865;DHT22;3471;49.678;8.388;2022-12-29T07:56:25;13.30;99.90
6865;DHT22;3471;49.678;8.388;2022-12-29T07:58:51;13.30;99.90
6865;DHT22;3471;49.678;8.388;2022-12-29T08:01:16;13.30;99.90
6865;DHT22;3471;49.678;8.388;2022-12-29T08:03:42;13.30;99.90
6865;DHT22;3471;49.678;8.388;2022-12-29T08:06:10;13.30;99.90
6865;DHT22;3471;49.678;8.388;2022-12-29T08:08:36;13.30;99.90
6865;DHT22;3471;49.678;8.388;2022-12-29T08:11:01;13.40;99.90
6865;DHT22;3471;49.678;8.388;2022-12-29T08:13:27;13.40;99.90
6865;DHT22;3471;49.678;8.388;2022-12-29T08:15:52;13.30;99.90
6865;DHT22;3471;49.678;8.388;2022-12-29T08:18:18;13.30;99.90
6865;DHT22;3471;49.678;8.388;2022-12-29T08:20:43;13.30;99.90
6865;DHT22;3471;49.678;8.388;2022-12-29T08:23:09;13.30;99.90
6865;DHT22;3471;49.678;8.388;2022-12-29T08:25:34;13.30;99.90
6865;DHT22;3471;49.678;8.388;2022-12-29T08:28:00;13.40;99.90
6865;DHT22;3471;49.678;8.388;2022-12-29T08:30:26;13.30;99.90
6865;DHT22;3471;49.678;8.388;2022-12-29T08:32:51;13.30;99.90
6865;DHT22;3471;49.678;8.388;2022-12-29T08:35:17;13.30;99.90
6865;DHT22;3471;49.678;8.388;2022-12-29T08:37:42;13.30;99.90
6865;DHT22;3471;49.678;8.388;2022-12-29T08:40:08;13.30;99.90
6865;DHT22;3471;49.678;8.388;2022-12-29T08:42:34;13.40;99.90
6865;DHT22;3471;49.678;8.388;2022-12-29T08:45:00;13.40;99.90
6865;DHT22;3471;49.678;8.388;2022-12-29T08:47:26;13.40;99.90
6865;DHT22;3471;49.678;8.388;2022-12-29T08:49:52;13.50;99.90
6865;DHT22;3471;49.678;8.388;2022-12-29T08:52:18;13.50;99.90
6865;DHT22;3471;49.678;8.388;2022-12-29T08:54:43;13.40;99.90
6865;DHT22;3471;49.678;8.388;2022-12-29T08:57:09;13.40;99.90
6865;DHT22;3471;49.678;8.388;2022-12-29T08:59:34;13.40;99.90
6865;DHT22;3471;49.678;8.388;2022-12-29T09:02:00;13.40;99.90
6865;DHT22;3471;49.678;8.388;2022-12-29T09:04:27;13.40;99.90
6865;DHT22;3471;49.678;8.388;2022-12-29T09:06:52;13.40;99.90
6865;DHT22;3471;49.678;8.388;2022-12-29T09:09:18;13.40;99.90
6865;DHT22;3471;49.678;8.388;2022-12-29T09:11:44;13.30;99.90
6865;DHT22;3471;49.678;8.388;2022-12-29T09:14:10;13.30;99.90
6865;DHT22;3471;49.678;8.388;2022-12-29T09:16:36;13.30;99.90
6865;DHT22;3471;49.678;8.388;2022-12-29T09:19:02;13.20;99.90
6865;DHT22;3471;49.678;8.388;2022-12-29T09:21:28;13.20;99.90
6865;DHT22;3471;49.678;8.388;2022-12-29T09:23:53;13.30;99.90
6865;DHT22;3471;49.678;8.388;2022-12-29T09:26:19;13.20;99.90
6865;DHT22;3471;49.678;8.388;2022-12-29T09:28:44;13.20;99.90
6865;DHT22;3471;49.678;8.388;2022-12-29T09:31:11;13.20;99.90
6865;DHT22;3471;49.678;8.388;2022-12-29T09:33:36;13.20;99.90
6865;DHT22;3471;49.678;8.388;2022-12-29T09:36:03;13.20;99.90
6865;DHT22;3471;49.678;8.388;2022-12-29T09:38:29;13.20;99.90
6865;DHT22;3471;49.678;8.388;2022-12-29T09:41:01;13.20;99.90
6865;DHT22;3471;49.678;8.388;2022-12-29T09:44:03;13.20;99.90
6865;DHT22;3471;49.678;8.388;2022-12-29T09:46:37;13.20;99.90
6865;DHT22;3471;49.678;8.388;2022-12-29T09:51:53;13.20;99.90
6865;DHT22;3471;49.678;8.388;2022-12-29T09:56:49;13.30;99.90
6865;DHT22;3471;49.678;8.388;2022-12-29T09:59:19;13.30;99.90
6865;DHT22;3471;49.678;8.388;2022-12-29T10:02:14;13.30;99.90
6865;DHT22;3471;49.678;8.388;2022-12-29T10:04:42;13.40;99.90
6865;DHT22;3471;49.678;8.388;2022-12-29T10:07:26;13.40;99.90
6865;DHT22;3471;49.678;8.388;2022-12-29T10:10:23;13.40;99.90
6865;DHT22;3471;49.678;8.388;2022-12-29T10:16:02;13.50;99.90
6865;DHT22;3471;49.678;8.388;2022-12-29T10:23:48;13.80;99.90
6865;DHT22;3471;49.678;8.388;2022-12-29T10:26:24;13.80;99.90
6865;DHT22;3471;49.678;8.388;2022-12-29T10:28:58;13.80;99.90
6865;DHT22;3471;49.678;8.388;2022-12-29T10:31:38;13.80;99.90
6865;DHT22;3471;49.678;8.388;2022-12-29T10:34:24;13.80;99.90
6865;DHT22;3471;49.678;8.388;2022-12-29T10:36:57;13.70;99.90
6865;DHT22;3471;49.678;8.388;2022-12-29T10:39:33;13.60;99.90
6865;DHT22;3471;49.678;8.388;2022-12-29T10:42:26;13.60;99.90
6865;DHT22;3471;49.678;8.388;2022-12-29T10:44:55;13.20;99.90
6865;DHT22;3471;49.678;8.388;2022-12-29T10:47:24;12.70;99.90
6865;DHT22;3471;49.678;8.388;2022-12-29T10:49:51;12.20;99.90
6865;DHT22;3471;49.678;8.388;2022-12-29T10:52:19;11.90;99.90
6865;DHT22;3471;49.678;8.388;2022-12-29T10:54:54;11.70;99.90
6865;DHT22;3471;49.678;8.388;2022-12-29T10:57:32;11.60;99.90
6865;DHT22;3471;49.678;8.388;2022-12-29T10:59:59;11.60;99.90
6865;DHT22;3471;49.678;8.388;2022-12-29T11:02:54;11.60;99.90
6865;DHT22;3471;49.678;8.388;2022-12-29T11:07:57;11.50;99.90
6865;DHT22;3471;49.678;8.388;2022-12-29T11:13:24;11.40;99.90
6865;DHT22;3471;49.678;8.388;2022-12-29T11:15:51;11.40;99.90
6865;DHT22;3471;49.678;8.388;2022-12-29T11:18:36;11.40;99.90
6865;DHT22;3471;49.678;8.388;2022-12-29T11:21:26;11.50;99.90
6865;DHT22;3471;49.678;8.388;2022-12-29T11:24:00;11.60;99.90
6865;DHT22;3471;49.678;8.388;2022-12-29T11:26:27;11.70;99.90
6865;DHT22;3471;49.678;8.388;2022-12-29T11:29:21;11.80;99.90
6865;DHT22;3471;49.678;8.388;2022-12-29T11:31:50;12.00;99.90
6865;DHT22;3471;49.678;8.388;2022-12-29T11:34:21;12.20;99.90
6865;DHT22;3471;49.678;8.388;2022-12-29T11:36:49;12.30;99.90
6865;DHT22;3471;49.678;8.388;2022-12-29T11:39:30;12.40;99.90
6865;DHT22;3471;49.678;8.388;2022-12-29T11:41:56;12.40;99.90
6865;DHT22;3471;49.678;8.388;2022-12-29T11:44:22;12.50;99.90
6865;DHT22;3471;49.678;8.388;2022-12-29T11:46:51;12.40;99.90
6865;DHT22;3471;49.678;8.388;2022-12-29T11:49:20;12.30;99.90
6865;DHT22;3471;49.678;8.388;2022-12-29T11:51:49;12.30;99.90
6865;DHT22;3471;49.678;8.388;2022-12-29T11:54:21;12.20;99.90
6865;DHT22;3471;49.678;8.388;2022-12-29T11:56:48;12.20;99.90
6865;DHT22;3471;49.678;8.388;2022-12-29T12:01:53;12.10;99.90
6865;DHT22;3471;49.678;8.388;2022-12-29T12:04:23;12.20;99.90
6865;DHT22;3471;49.678;8.388;2022-12-29T12:09:31;12.80;99.90
6865;DHT22;3471;49.678;8.388;2022-12-29T12:11:59;13.40;99.90
6865;DHT22;3471;49.678;8.388;2022-12-29T12:14:53;14.00;99.90
6865;DHT22;3471;49.678;8.388;2022-12-29T12:17:40;14.60;99.90
6865;DHT22;3471;49.678;8.388;2022-12-29T12:20:16;15.30;99.90
6865;DHT22;3471;49.678;8.388;2022-12-29T12:23:36;15.80;99.90
6865;DHT22;3471;49.678;8.388;2022-12-29T12:25:54;16.30;99.90
6865;DHT22;3471;49.678;8.388;2022-12-29T12:28:30;16.80;99.90
6865;DHT22;3471;49.678;8.388;2022-12-29T12:30:59;16.70;99.90
6865;DHT22;3471;49.678;8.388;2022-12-29T12:33:33;16.40;99.90
6865;DHT22;3471;49.678;8.388;2022-12-29T12:44:03;15.50;99.90
6865;DHT22;3471;49.678;8.388;2022-12-29T12:49:51;14.70;99.90
6865;DHT22;3471;49.678;8.388;2022-12-29T12:58:13;13.90;99.90
6865;DHT22;3471;49.678;8.388;2022-12-29T13:06:35;13.40;99.90
6865;DHT22;3471;49.678;8.388;2022-12-29T13:09:16;13.20;99.90
6865;DHT22;3471;49.678;8.388;2022-12-29T13:12:13;13.20;99.90
6865;DHT22;3471;49.678;8.388;2022-12-29T13:21:22;13.10;99.90
6865;DHT22;3471;49.678;8.388;2022-12-29T13:23:57;13.10;99.90
6865;DHT22;3471;49.678;8.388;2022-12-29T13:29:20;13.10;99.90
6865;DHT22;3471;49.678;8.388;2022-12-29T13:31:54;13.10;99.90
6865;DHT22;3471;49.678;8.388;2022-12-29T13:34:47;13.10;99.90
6865;DHT22;3471;49.678;8.388;2022-12-29T13:37:20;13.00;99.90
6865;DHT22;3471;49.678;8.388;2022-12-29T13:39:51;13.00;99.90
6865;DHT22;3471;49.678;8.388;2022-12-29T13:42:19;13.00;99.90
6865;DHT22;3471;49.678;8.388;2022-12-29T13:44:48;12.90;99.90
6865;DHT22;3471;49.678;8.388;2022-12-29T13:49:40;12.80;99.90
6865;DHT22;3471;49.678;8.388;2022-12-29T13:58:00;12.70;99.90
6865;DHT22;3471;49.678;8.388;2022-12-29T14:00:31;12.70;99.90
6865;DHT22;3471;49.678;8.388;2022-12-29T14:03:26;12.80;99.90
6865;DHT22;3471;49.678;8.388;2022-12-29T14:06:15;12.70;99.90
6865;DHT22;3471;49.678;8.388;2022-12-29T14:08:42;12.70;99.90
6865;DHT22;3471;49.678;8.388;2022-12-29T14:11:15;12.70;99.90
6865;DHT22;3471;49.678;8.388;2022-12-29T14:13:43;12.80;99.90
6865;DHT22;3471;49.678;8.388;2022-12-29T14:16:29;12.80;99.90
6865;DHT22;3471;49.678;8.388;2022-12-29T14:19:03;12.80;99.90
6865;DHT22;3471;49.678;8.388;2022-12-29T14:21:29;12.80;99.90
6865;DHT22;3471;49.678;8.388;2022-12-29T14:26:52;12.70;99.90
6865;DHT22;3471;49.678;8.388;2022-12-29T14:31:53;12.60;99.90
6865;DHT22;3471;49.678;8.388;2022-12-29T14:36:56;12.50;99.90
6865;DHT22;3471;49.678;8.388;2022-12-29T14:44:31;12.50;99.90
6865;DHT22;3471;49.678;8.388;2022-12-29T14:46:59;12.50;99.90
6865;DHT22;3471;49.678;8.388;2022-12-29T14:49:31;12.50;99.90
6865;DHT22;3471;49.678;8.388;2022-12-29T14:54:44;12.50;99.90
6865;DHT22;3471;49.678;8.388;2022-12-29T14:57:20;12.50;99.90
6865;DHT22;3471;49.678;8.388;2022-12-29T14:59:48;12.50;99.90
6865;DHT22;3471;49.678;8.388;2022-12-29T15:02:19;12.50;99.90
6865;DHT22;3471;49.678;8.388;2022-12-29T15:04:47;12.50;99.90
6865;DHT22;3471;49.678;8.388;2022-12-29T15:07:13;12.50;99.90
6865;DHT22;3471;49.678;8.388;2022-12-29T15:09:50;12.60;99.90
6865;DHT22;3471;49.678;8.388;2022-12-29T15:15:00;12.60;99.90
6865;DHT22;3471;49.678;8.388;2022-12-29T15:17:32;12.50;99.90
6865;DHT22;3471;49.678;8.388;2022-12-29T15:20:24;12.40;99.90
6865;DHT22;3471;49.678;8.388;2022-12-29T15:23:11;12.40;99.90
6865;DHT22;3471;49.678;8.388;2022-12-29T15:25:47;12.30;99.90
6865;DHT22;3471;49.678;8.388;2022-12-29T15:28:15;12.20;99.90
6865;DHT22;3471;49.678;8.388;2022-12-29T15:30:54;12.10;99.90
6865;DHT22;3471;49.678;8.388;2022-12-29T15:33:22;12.00;99.90
6865;DHT22;3471;49.678;8.388;2022-12-29T15:35:52;11.90;99.90
6865;DHT22;3471;49.678;8.388;2022-12-29T15:38:26;11.80;99.90
6865;DHT22;3471;49.678;8.388;2022-12-29T15:40:56;11.80;99.90
6865;DHT22;3471;49.678;8.388;2022-12-29T15:46:06;11.60;99.90
6865;DHT22;3471;49.678;8.388;2022-12-29T15:48:32;11.60;99.90
6865;DHT22;3471;49.678;8.388;2022-12-29T15:50:58;11.50;99.90
6865;DHT22;3471;49.678;8.388;2022-12-29T15:53:29;11.40;99.90
6865;DHT22;3471;49.678;8.388;2022-12-29T15:56:06;11.40;99.90
6865;DHT22;3471;49.678;8.388;2022-12-29T15:58:43;11.40;99.90
6865;DHT22;3471;49.678;8.388;2022-12-29T16:03:46;11.40;99.90
6865;DHT22;3471;49.678;8.388;2022-12-29T16:06:36;11.40;99.90
6865;DHT22;3471;49.678;8.388;2022-12-29T16:09:34;11.40;99.90
6865;DHT22;3471;49.678;8.388;2022-12-29T16:12:06;11.40;99.90
6865;DHT22;3471;49.678;8.388;2022-12-29T16:14:42;11.30;99.90
6865;DHT22;3471;49.678;8.388;2022-12-29T16:17:13;11.30;99.90
6865;DHT22;3471;49.678;8.388;2022-12-29T16:19:42;11.30;99.90
6865;DHT22;3471;49.678;8.388;2022-12-29T16:22:17;11.30;99.90
6865;DHT22;3471;49.678;8.388;2022-12-29T16:24:45;11.20;99.90
6865;DHT22;3471;49.678;8.388;2022-12-29T16:27:22;11.20;99.90
6865;DHT22;3471;49.678;8.388;2022-12-29T16:29:54;11.10;99.90
6865;DHT22;3471;49.678;8.388;2022-12-29T16:32:26;11.10;99.90
6865;DHT22;3471;49.678;8.388;2022-12-29T16:35:23;11.10;99.90
6865;DHT22;3471;49.678;8.388;2022-12-29T16:40:32;11.10;99.90
6865;DHT22;3471;49.678;8.388;2022-12-29T16:43:04;11.10;99.90
6865;DHT22;3471;49.678;8.388;2022-12-29T16:50:40;11.10;99.90
6865;DHT22;3471;49.678;8.388;2022-12-29T16:53:24;11.10;99.90
6865;DHT22;3471;49.678;8.388;2022-12-29T16:55:52;11.20;99.90
6865;DHT22;3471;49.678;8.388;2022-12-29T16:58:25;11.20;99.90
6865;DHT22;3471;49.678;8.388;2022-12-29T17:01:00;11.20;99.90
6865;DHT22;3471;49.678;8.388;2022-12-29T17:03:42;11.20;99.90
6865;DHT22;3471;49.678;8.388;2022-12-29T17:06:16;11.20;99.90
6865;DHT22;3471;49.678;8.388;2022-12-29T17:08:44;11.20;99.90
6865;DHT22;3471;49.678;8.388;2022-12-29T17:11:31;11.20;99.90
6865;DHT22;3471;49.678;8.388;2022-12-29T17:16:47;11.10;99.90
6865;DHT22;3471;49.678;8.388;2022-12-29T17:19:28;11.10;99.90
6865;DHT22;3471;49.678;8.388;2022-12-29T17:21:54;11.10;99.90
6865;DHT22;3471;49.678;8.388;2022-12-29T17:24:20;11.10;99.90
6865;DHT22;3471;49.678;8.388;2022-12-29T17:26:50;11.10;99.90
6865;DHT22;3471;49.678;8.388;2022-12-29T17:29:44;11.10;99.90
6865;DHT22;3471;49.678;8.388;2022-12-29T17:32:12;11.10;99.90
6865;DHT22;3471;49.678;8.388;2022-12-29T17:34:41;11.10;99.90
6865;DHT22;3471;49.678;8.388;2022-12-29T17:39:49;11.10;99.90
6865;DHT22;3471;49.678;8.388;2022-12-29T17:42:16;11.10;99.90
6865;DHT22;3471;49.678;8.388;2022-12-29T17:44:42;11.20;99.90
6865;DHT22;3471;49.678;8.388;2022-12-29T17:47:10;11.20;99.90
6865;DHT22;3471;49.678;8.388;2022-12-29T17:49:36;11.20;99.90
6865;DHT22;3471;49.678;8.388;2022-12-29T17:52:02;11.20;99.90
6865;DHT22;3471;49.678;8.388;2022-12-29T17:54:28;11.20;99.90
6865;DHT22;3471;49.678;8.388;2022-12-29T17:56:54;11.20;99.90
6865;DHT22;3471;49.678;8.388;2022-12-29T17:59:19;11.20;99.90
6865;DHT22;3471;49.678;8.388;2022-12-29T18:01:47;11.20;99.90
6865;DHT22;3471;49.678;8.388;2022-12-29T18:04:16;11.20;99.90
6865;DHT22;3471;49.678;8.388;2022-12-29T18:06:43;11.30;99.90
6865;DHT22;3471;49.678;8.388;2022-12-29T18:09:09;11.30;99.90
6865;DHT22;3471;49.678;8.388;2022-12-29T18:11:37;11.30;99.90
6865;DHT22;3471;49.678;8.388;2022-12-29T18:14:04;11.30;99.90
6865;DHT22;3471;49.678;8.388;2022-12-29T18:16:30;11.30;99.90
6865;DHT22;3471;49.678;8.388;2022-12-29T18:18:56;11.30;99.90
6865;DHT22;3471;49.678;8.388;2022-12-29T18:21:23;11.30;99.90
6865;DHT22;3471;49.678;8.388;2022-12-29T18:23:49;11.30;99.90
6865;DHT22;3471;49.678;8.388;2022-12-29T18:28:43;11.30;99.90
6865;DHT22;3471;49.678;8.388;2022-12-29T18:31:18;11.20;99.90
6865;DHT22;3471;49.678;8.388;2022-12-29T18:33:45;11.20;99.90
6865;DHT22;3471;49.678;8.388;2022-12-29T18:36:11;11.20;99.90
6865;DHT22;3471;49.678;8.388;2022-12-29T18:38:37;11.20;99.90
6865;DHT22;3471;49.678;8.388;2022-12-29T18:41:03;11.20;99.90
6865;DHT22;3471;49.678;8.388;2022-12-29T18:43:29;11.20;99.90
6865;DHT22;3471;49.678;8.388;2022-12-29T18:45:55;11.20;99.90